sensor_id;sensor_type;location;lat;lon;timestamp;temperature;humidity
50816;DHT22;39717;47.324;8.788;2022-09-09T00:05:04;14.60;99.90
50816;DHT22;39717;47.324;8.788;2022-09-09T00:07:43;14.50;99.90
50816;DHT22;39717;47.324;8.788;2022-09-09T00:10:25;14.40;99.90
50816;DHT22;39717;47.324;8.788;2022-09-09T00:13:16;14.30;99.90
50816;DHT22;39717;47.324;8.788;2022-09-09T00:18:49;14.40;99.90
50816;DHT22;39717;47.324;8.788;2022-09-09T00:21:18;14.40;99.90
50816;DHT22;39717;47.324;8.788;2022-09-09T00:23:56;14.40;99.90
50816;DHT22;39717;47.324;8.788;2022-09-09T00:26:42;14.50;99.90
50816;DHT22;39717;47.324;8.788;2022-09-09T00:29:36;14.50;99.90
50816;DHT22;39717;47.324;8.788;2022-09-09T00:32:18;14.40;99.90
50816;DHT22;39717;47.324;8.788;2022-09-09T00:37:36;14.30;99.90
50816;DHT22;39717;47.324;8.788;2022-09-09T00:43:27;14.30;99.90
50816;DHT22;39717;47.324;8.788;2022-09-09T00:48:22;14.30;99.90
50816;DHT22;39717;47.324;8.788;2022-09-09T00:50:58;14.30;99.90
50816;DHT22;39717;47.324;8.788;2022-09-09T00:56:16;14.30;99.90
50816;DHT22;39717;47.324;8.788;2022-09-09T00:59:00;14.20;99.90
50816;DHT22;39717;47.324;8.788;2022-09-09T01:01:30;14.10;99.90
50816;DHT22;39717;47.324;8.788;2022-09-09T01:03:57;14.10;99.90
50816;DHT22;39717;47.324;8.788;2022-09-09T01:06:37;14.20;99.90
50816;DHT22;39717;47.324;8.788;2022-09-09T01:17:26;14.10;99.90
50816;DHT22;39717;47.324;8.788;2022-09-09T01:20:15;14.10;99.90
50816;DHT22;39717;47.324;8.788;2022-09-09T01:26:15;14.00;99.90
50816;DHT22;39717;47.324;8.788;2022-09-09T01:28:45;14.00;99.90
50816;DHT22;39717;47.324;8.788;2022-09-09T01:31:28;14.00;99.90
50816;DHT22;39717;47.324;8.788;2022-09-09T01:33:55;14.00;99.90
50816;DHT22;39717;47.324;8.788;2022-09-09T01:36:38;14.00;99.90
50816;DHT22;39717;47.324;8.788;2022-09-09T01:39:04;13.90;99.90
50816;DHT22;39717;47.324;8.788;2022-09-09T01:41:30;13.90;99.90
50816;DHT22;39717;47.324;8.788;2022-09-09T01:43:57;13.90;99.90
50816;DHT22;39717;47.324;8.788;2022-09-09T01:46:23;13.90;99.90
50816;DHT22;39717;47.324;8.788;2022-09-09T01:48:53;13.80;99.90
50816;DHT22;39717;47.324;8.788;2022-09-09T01:51:20;13.70;99.90
50816;DHT22;39717;47.324;8.788;2022-09-09T01:53:46;13.60;99.90
50816;DHT22;39717;47.324;8.788;2022-09-09T01:56:28;13.60;99.90
50816;DHT22;39717;47.324;8.788;2022-09-09T02:04:43;13.70;99.90
50816;DHT22;39717;47.324;8.788;2022-09-09T02:07:18;13.70;99.90
50816;DHT22;39717;47.324;8.788;2022-09-09T02:09:51;13.80;99.90
50816;DHT22;39717;47.324;8.788;2022-09-09T02:12:22;13.80;99.90
50816;DHT22;39717;47.324;8.788;2022-09-09T02:14:56;13.80;99.90
50816;DHT22;39717;47.324;8.788;2022-09-09T02:17:30;13.70;99.90
50816;DHT22;39717;47.324;8.788;2022-09-09T02:20:08;13.70;99.90
50816;DHT22;39717;47.324;8.788;2022-09-09T02:22:37;13.70;99.90
50816;DHT22;39717;47.324;8.788;2022-09-09T02:25:08;13.80;99.90
50816;DHT22;39717;47.324;8.788;2022-09-09T02:27:34;13.80;99.90
50816;DHT22;39717;47.324;8.788;2022-09-09T02:30:03;13.80;99.90
50816;DHT22;39717;47.324;8.788;2022-09-09T02:32:31;13.90;99.90
50816;DHT22;39717;47.324;8.788;2022-09-09T02:35:05;13.90;99.90
50816;DHT22;39717;47.324;8.788;2022-09-09T02:37:37;13.80;99.90
50816;DHT22;39717;47.324;8.788;2022-09-09T02:40:08;13.90;99.90
50816;DHT22;39717;47.324;8.788;2022-09-09T02:42:40;13.80;99.90
50816;DHT22;39717;47.324;8.788;2022-09-09T02:45:08;13.90;99.90
50816;DHT22;39717;47.324;8.788;2022-09-09T02:47:37;13.90;99.90
50816;DHT22;39717;47.324;8.788;2022-09-09T02:55:39;14.10;99.90
50816;DHT22;39717;47.324;8.788;2022-09-09T02:58:11;14.10;99.90
50816;DHT22;39717;47.324;8.788;2022-09-09T03:00:39;14.20;99.90
50816;DHT22;39717;47.324;8.788;2022-09-09T03:03:07;14.20;99.90
50816;DHT22;39717;47.324;8.788;2022-09-09T03:05:34;14.30;99.90
50816;DHT22;39717;47.324;8.788;2022-09-09T03:08:01;14.30;99.90
50816;DHT22;39717;47.324;8.788;2022-09-09T03:10:27;14.30;99.90
50816;DHT22;39717;47.324;8.788;2022-09-09T03:12:54;14.30;99.90
50816;DHT22;39717;47.324;8.788;2022-09-09T03:15:21;14.40;99.90
50816;DHT22;39717;47.324;8.788;2022-09-09T03:17:46;14.40;99.90
50816;DHT22;39717;47.324;8.788;2022-09-09T03:20:13;14.50;99.90
50816;DHT22;39717;47.324;8.788;2022-09-09T03:22:38;14.50;99.90
50816;DHT22;39717;47.324;8.788;2022-09-09T03:25:04;14.50;99.90
50816;DHT22;39717;47.324;8.788;2022-09-09T03:27:32;14.50;99.90
50816;DHT22;39717;47.324;8.788;2022-09-09T03:29:58;14.60;99.90
50816;DHT22;39717;47.324;8.788;2022-09-09T03:32:24;14.60;99.90
50816;DHT22;39717;47.324;8.788;2022-09-09T03:34:52;14.60;99.90
50816;DHT22;39717;47.324;8.788;2022-09-09T03:37:19;14.60;99.90
50816;DHT22;39717;47.324;8.788;2022-09-09T03:39:45;14.60;99.90
50816;DHT22;39717;47.324;8.788;2022-09-09T03:42:15;14.60;99.90
50816;DHT22;39717;47.324;8.788;2022-09-09T03:44:45;14.70;99.90
50816;DHT22;39717;47.324;8.788;2022-09-09T03:47:19;14.70;99.90
50816;DHT22;39717;47.324;8.788;2022-09-09T03:49:47;14.70;99.90
50816;DHT22;39717;47.324;8.788;2022-09-09T03:52:14;14.60;99.90
50816;DHT22;39717;47.324;8.788;2022-09-09T03:54:41;14.60;99.90
50816;DHT22;39717;47.324;8.788;2022-09-09T03:57:09;14.60;99.90
50816;DHT22;39717;47.324;8.788;2022-09-09T03:59:36;14.70;99.90
50816;DHT22;39717;47.324;8.788;2022-09-09T04:02:02;14.70;99.90
50816;DHT22;39717;47.324;8.788;2022-09-09T04:04:28;14.80;99.90
50816;DHT22;39717;47.324;8.788;2022-09-09T04:06:54;14.80;99.90
50816;DHT22;39717;47.324;8.788;2022-09-09T04:09:20;14.70;99.90
50816;DHT22;39717;47.324;8.788;2022-09-09T04:11:46;14.80;99.90
50816;DHT22;39717;47.324;8.788;2022-09-09T04:14:12;14.80;99.90
50816;DHT22;39717;47.324;8.788;2022-09-09T04:16:38;14.80;99.90
50816;DHT22;39717;47.324;8.788;2022-09-09T04:19:05;14.80;99.90
50816;DHT22;39717;47.324;8.788;2022-09-09T04:21:33;14.80;99.90
50816;DHT22;39717;47.324;8.788;2022-09-09T04:23:59;14.80;99.90
50816;DHT22;39717;47.324;8.788;2022-09-09T04:26:25;14.80;99.90
50816;DHT22;39717;47.324;8.788;2022-09-09T04:28:51;14.70;99.90
50816;DHT22;39717;47.324;8.788;2022-09-09T04:31:21;14.70;99.90
50816;DHT22;39717;47.324;8.788;2022-09-09T04:33:51;14.80;99.90
50816;DHT22;39717;47.324;8.788;2022-09-09T04:36:18;14.80;99.90
50816;DHT22;39717;47.324;8.788;2022-09-09T04:38:46;14.80;99.90
50816;DHT22;39717;47.324;8.788;2022-09-09T04:41:12;14.80;99.90
50816;DHT22;39717;47.324;8.788;2022-09-09T04:43:39;14.70;99.90
50816;DHT22;39717;47.324;8.788;2022-09-09T04:46:05;14.60;99.90
50816;DHT22;39717;47.324;8.788;2022-09-09T04:48:31;14.50;99.90
50816;DHT22;39717;47.324;8.788;2022-09-09T04:51:03;14.40;99.90
50816;DHT22;39717;47.324;8.788;2022-09-09T04:53:31;14.40;99.90
50816;DHT22;39717;47.324;8.788;2022-09-09T04:56:14;14.30;99.90
50816;DHT22;39717;47.324;8.788;2022-09-09T04:58:41;14.20;99.90
50816;DHT22;39717;47.324;8.788;2022-09-09T05:01:11;14.30;99.90
50816;DHT22;39717;47.324;8.788;2022-09-09T05:03:37;14.30;99.90
50816;DHT22;39717;47.324;8.788;2022-09-09T05:06:08;14.30;99.90
50816;DHT22;39717;47.324;8.788;2022-09-09T05:08:36;14.30;99.90
50816;DHT22;39717;47.324;8.788;2022-09-09T05:11:04;14.30;99.90
50816;DHT22;39717;47.324;8.788;2022-09-09T05:13:30;14.30;99.90
50816;DHT22;39717;47.324;8.788;2022-09-09T05:15:57;14.20;99.90
50816;DHT22;39717;47.324;8.788;2022-09-09T05:18:23;14.20;99.90
50816;DHT22;39717;47.324;8.788;2022-09-09T05:20:49;14.20;99.90
50816;DHT22;39717;47.324;8.788;2022-09-09T05:23:16;14.20;99.90
50816;DHT22;39717;47.324;8.788;2022-09-09T05:25:42;14.20;99.90
50816;DHT22;39717;47.324;8.788;2022-09-09T05:28:09;14.20;99.90
50816;DHT22;39717;47.324;8.788;2022-09-09T05:30:35;14.20;99.90
50816;DHT22;39717;47.324;8.788;2022-09-09T05:33:01;14.20;99.90
50816;DHT22;39717;47.324;8.788;2022-09-09T05:35:26;14.20;99.90
50816;DHT22;39717;47.324;8.788;2022-09-09T05:37:52;14.20;99.90
50816;DHT22;39717;47.324;8.788;2022-09-09T05:40:18;14.20;99.90
50816;DHT22;39717;47.324;8.788;2022-09-09T05:42:44;14.20;99.90
50816;DHT22;39717;47.324;8.788;2022-09-09T05:45:10;14.20;99.90
50816;DHT22;39717;47.324;8.788;2022-09-09T05:47:36;14.20;99.90
50816;DHT22;39717;47.324;8.788;2022-09-09T05:50:03;14.20;99.90
50816;DHT22;39717;47.324;8.788;2022-09-09T05:52:29;14.20;99.90
50816;DHT22;39717;47.324;8.788;2022-09-09T05:54:55;14.20;99.90
50816;DHT22;39717;47.324;8.788;2022-09-09T05:57:22;14.20;99.90
50816;DHT22;39717;47.324;8.788;2022-09-09T05:59:48;14.20;99.90
50816;DHT22;39717;47.324;8.788;2022-09-09T06:02:15;14.20;99.90
50816;DHT22;39717;47.324;8.788;2022-09-09T06:04:42;14.20;99.90
50816;DHT22;39717;47.324;8.788;2022-09-09T06:07:07;14.20;99.90
50816;DHT22;39717;47.324;8.788;2022-09-09T06:09:33;14.30;99.90
50816;DHT22;39717;47.324;8.788;2022-09-09T06:11:59;14.20;99.90
50816;DHT22;39717;47.324;8.788;2022-09-09T06:14:25;14.30;99.90
50816;DHT22;39717;47.324;8.788;2022-09-09T06:16:52;14.30;99.90
50816;DHT22;39717;47.324;8.788;2022-09-09T06:19:18;14.30;99.90
50816;DHT22;39717;47.324;8.788;2022-09-09T06:21:46;14.40;99.90
50816;DHT22;39717;47.324;8.788;2022-09-09T06:24:13;14.40;99.90
50816;DHT22;39717;47.324;8.788;2022-09-09T06:26:43;14.40;99.90
50816;DHT22;39717;47.324;8.788;2022-09-09T06:29:09;14.40;99.90
50816;DHT22;39717;47.324;8.788;2022-09-09T06:31:36;14.50;99.90
50816;DHT22;39717;47.324;8.788;2022-09-09T06:34:05;14.50;99.90
50816;DHT22;39717;47.324;8.788;2022-09-09T06:36:34;14.50;99.90
50816;DHT22;39717;47.324;8.788;2022-09-09T06:39:00;14.50;99.90
50816;DHT22;39717;47.324;8.788;2022-09-09T06:41:28;14.50;99.90
50816;DHT22;39717;47.324;8.788;2022-09-09T06:43:54;14.50;99.90
50816;DHT22;39717;47.324;8.788;2022-09-09T06:46:25;14.50;99.90
50816;DHT22;39717;47.324;8.788;2022-09-09T06:48:56;14.60;99.90
50816;DHT22;39717;47.324;8.788;2022-09-09T06:51:26;14.60;99.90
50816;DHT22;39717;47.324;8.788;2022-09-09T06:53:55;14.60;99.90
50816;DHT22;39717;47.324;8.788;2022-09-09T06:56:29;14.60;99.90
50816;DHT22;39717;47.324;8.788;2022-09-09T06:58:57;14.60;99.90
50816;DHT22;39717;47.324;8.788;2022-09-09T07:01:32;14.60;99.90
50816;DHT22;39717;47.324;8.788;2022-09-09T07:03:59;14.70;99.90
50816;DHT22;39717;47.324;8.788;2022-09-09T07:06:28;14.80;99.90
50816;DHT22;39717;47.324;8.788;2022-09-09T07:08:56;14.80;99.90
50816;DHT22;39717;47.324;8.788;2022-09-09T07:11:29;14.80;99.90
50816;DHT22;39717;47.324;8.788;2022-09-09T07:13:56;14.90;99.90
50816;DHT22;39717;47.324;8.788;2022-09-09T07:16:22;14.90;99.90
50816;DHT22;39717;47.324;8.788;2022-09-09T07:18:53;15.00;99.90
50816;DHT22;39717;47.324;8.788;2022-09-09T07:21:23;15.10;99.90
50816;DHT22;39717;47.324;8.788;2022-09-09T07:23:50;15.20;99.90
50816;DHT22;39717;47.324;8.788;2022-09-09T07:26:19;15.20;99.90
50816;DHT22;39717;47.324;8.788;2022-09-09T07:28:46;15.30;99.90
50816;DHT22;39717;47.324;8.788;2022-09-09T07:31:16;15.30;99.90
50816;DHT22;39717;47.324;8.788;2022-09-09T07:33:44;15.30;99.90
50816;DHT22;39717;47.324;8.788;2022-09-09T07:36:23;15.40;99.90
50816;DHT22;39717;47.324;8.788;2022-09-09T07:38:55;15.40;99.90
50816;DHT22;39717;47.324;8.788;2022-09-09T07:41:33;15.40;99.90
50816;DHT22;39717;47.324;8.788;2022-09-09T07:44:15;15.30;99.90
50816;DHT22;39717;47.324;8.788;2022-09-09T07:46:42;15.30;99.90
50816;DHT22;39717;47.324;8.788;2022-09-09T07:49:09;15.40;99.90
50816;DHT22;39717;47.324;8.788;2022-09-09T07:51:38;15.40;99.90
50816;DHT22;39717;47.324;8.788;2022-09-09T07:54:09;15.30;99.90
50816;DHT22;39717;47.324;8.788;2022-09-09T07:56:37;15.30;99.90
50816;DHT22;39717;47.324;8.788;2022-09-09T07:59:03;15.40;99.90
50816;DHT22;39717;47.324;8.788;2022-09-09T08:01:41;15.40;99.90
50816;DHT22;39717;47.324;8.788;2022-09-09T08:04:15;15.40;99.90
50816;DHT22;39717;47.324;8.788;2022-09-09T08:06:50;15.40;99.90
50816;DHT22;39717;47.324;8.788;2022-09-09T08:09:18;15.50;99.90
50816;DHT22;39717;47.324;8.788;2022-09-09T08:11:45;15.50;99.90
50816;DHT22;39717;47.324;8.788;2022-09-09T08:14:12;15.50;99.90
50816;DHT22;39717;47.324;8.788;2022-09-09T08:16:43;15.50;99.90
50816;DHT22;39717;47.324;8.788;2022-09-09T08:19:10;15.70;99.90
50816;DHT22;39717;47.324;8.788;2022-09-09T08:21:38;15.80;99.90
50816;DHT22;39717;47.324;8.788;2022-09-09T08:24:06;15.90;99.90
50816;DHT22;39717;47.324;8.788;2022-09-09T08:26:35;16.00;99.90
50816;DHT22;39717;47.324;8.788;2022-09-09T08:29:04;16.10;99.90
50816;DHT22;39717;47.324;8.788;2022-09-09T08:31:39;16.30;99.90
50816;DHT22;39717;47.324;8.788;2022-09-09T08:34:06;16.40;99.90
50816;DHT22;39717;47.324;8.788;2022-09-09T08:36:43;16.50;99.90
50816;DHT22;39717;47.324;8.788;2022-09-09T08:39:11;16.50;99.90
50816;DHT22;39717;47.324;8.788;2022-09-09T08:47:16;16.80;99.90
50816;DHT22;39717;47.324;8.788;2022-09-09T16:43:10;17.00;99.90
50816;DHT22;39717;47.324;8.788;2022-09-09T16:48:11;19.60;26.80
50816;DHT22;39717;47.324;8.788;2022-09-09T16:53:05;19.50;27.90
50816;DHT22;39717;47.324;8.788;2022-09-09T16:55:38;19.50;26.30
50816;DHT22;39717;47.324;8.788;2022-09-09T16:58:05;19.40;26.40
50816;DHT22;39717;47.324;8.788;2022-09-09T17:00:31;19.40;26.20
50816;DHT22;39717;47.324;8.788;2022-09-09T17:02:57;19.30;25.90
50816;DHT22;39717;47.324;8.788;2022-09-09T17:05:24;19.30;26.80
50816;DHT22;39717;47.324;8.788;2022-09-09T17:07:50;19.20;26.60
50816;DHT22;39717;47.324;8.788;2022-09-09T17:10:18;19.10;26.80
50816;DHT22;39717;47.324;8.788;2022-09-09T17:12:44;19.10;28.10
50816;DHT22;39717;47.324;8.788;2022-09-09T17:15:11;19.00;27.10
50816;DHT22;39717;47.324;8.788;2022-09-09T17:17:37;19.20;26.70
50816;DHT22;39717;47.324;8.788;2022-09-09T17:20:03;19.20;26.50
50816;DHT22;39717;47.324;8.788;2022-09-09T17:22:31;19.10;27.20
50816;DHT22;39717;47.324;8.788;2022-09-09T17:24:58;19.10;27.00
50816;DHT22;39717;47.324;8.788;2022-09-09T17:27:24;18.90;27.00
50816;DHT22;39717;47.324;8.788;2022-09-09T17:29:50;19.00;27.00
50816;DHT22;39717;47.324;8.788;2022-09-09T17:32:16;18.90;27.30
50816;DHT22;39717;47.324;8.788;2022-09-09T17:34:42;18.90;27.30
50816;DHT22;39717;47.324;8.788;2022-09-09T17:37:08;18.90;27.40
50816;DHT22;39717;47.324;8.788;2022-09-09T17:39:34;18.80;27.80
50816;DHT22;39717;47.324;8.788;2022-09-09T17:41:59;18.80;28.40
50816;DHT22;39717;47.324;8.788;2022-09-09T17:44:25;18.70;28.50
50816;DHT22;39717;47.324;8.788;2022-09-09T18:04:07;17.40;42.70
50816;DHT22;39717;47.324;8.788;2022-09-09T18:06:36;17.40;43.40
50816;DHT22;39717;47.324;8.788;2022-09-09T18:09:11;17.30;44.90
50816;DHT22;39717;47.324;8.788;2022-09-09T18:11:41;17.20;46.40
50816;DHT22;39717;47.324;8.788;2022-09-09T18:14:13;17.10;47.30
50816;DHT22;39717;47.324;8.788;2022-09-09T18:16:40;17.10;49.10
50816;DHT22;39717;47.324;8.788;2022-09-09T18:19:08;17.00;46.40
50816;DHT22;39717;47.324;8.788;2022-09-09T18:21:39;17.00;48.20
50816;DHT22;39717;47.324;8.788;2022-09-09T18:24:06;17.00;47.70
50816;DHT22;39717;47.324;8.788;2022-09-09T18:26:33;17.00;48.50
50816;DHT22;39717;47.324;8.788;2022-09-09T18:29:03;17.00;46.50
50816;DHT22;39717;47.324;8.788;2022-09-09T18:31:30;17.00;46.90
50816;DHT22;39717;47.324;8.788;2022-09-09T18:33:59;17.00;46.70
50816;DHT22;39717;47.324;8.788;2022-09-09T18:36:31;17.00;49.30
50816;DHT22;39717;47.324;8.788;2022-09-09T18:39:00;16.90;48.50
50816;DHT22;39717;47.324;8.788;2022-09-09T18:41:29;16.90;46.40
50816;DHT22;39717;47.324;8.788;2022-09-09T18:43:59;17.00;44.70
50816;DHT22;39717;47.324;8.788;2022-09-09T18:46:27;17.10;42.20
50816;DHT22;39717;47.324;8.788;2022-09-09T18:48:53;17.10;39.80
50816;DHT22;39717;47.324;8.788;2022-09-09T18:51:23;17.10;40.00
50816;DHT22;39717;47.324;8.788;2022-09-09T18:53:52;17.10;41.00
50816;DHT22;39717;47.324;8.788;2022-09-09T18:56:19;17.00;43.30
50816;DHT22;39717;47.324;8.788;2022-09-09T18:58:46;16.90;41.00
50816;DHT22;39717;47.324;8.788;2022-09-09T19:01:15;16.70;43.60
50816;DHT22;39717;47.324;8.788;2022-09-09T19:03:41;16.50;47.90
50816;DHT22;39717;47.324;8.788;2022-09-09T19:06:12;16.40;45.60
50816;DHT22;39717;47.324;8.788;2022-09-09T19:08:44;16.40;48.00
50816;DHT22;39717;47.324;8.788;2022-09-09T19:11:13;16.40;46.50
50816;DHT22;39717;47.324;8.788;2022-09-09T19:13:41;16.50;45.10
50816;DHT22;39717;47.324;8.788;2022-09-09T19:16:13;16.50;45.70
50816;DHT22;39717;47.324;8.788;2022-09-09T19:18:40;16.50;46.50
50816;DHT22;39717;47.324;8.788;2022-09-09T19:21:10;16.50;47.80
50816;DHT22;39717;47.324;8.788;2022-09-09T19:23:36;16.50;47.10
50816;DHT22;39717;47.324;8.788;2022-09-09T19:26:04;16.50;47.40
50816;DHT22;39717;47.324;8.788;2022-09-09T19:28:34;16.50;48.30
50816;DHT22;39717;47.324;8.788;2022-09-09T19:31:05;16.50;47.60
50816;DHT22;39717;47.324;8.788;2022-09-09T19:33:32;16.50;46.80
50816;DHT22;39717;47.324;8.788;2022-09-09T19:35:59;16.50;47.10
50816;DHT22;39717;47.324;8.788;2022-09-09T19:38:28;16.40;48.30
50816;DHT22;39717;47.324;8.788;2022-09-09T19:40:54;16.40;48.00
50816;DHT22;39717;47.324;8.788;2022-09-09T19:43:22;16.40;48.40
50816;DHT22;39717;47.324;8.788;2022-09-09T19:46:03;16.30;54.70
50816;DHT22;39717;47.324;8.788;2022-09-09T19:51:16;16.20;48.90
50816;DHT22;39717;47.324;8.788;2022-09-09T19:53:53;16.20;49.40
50816;DHT22;39717;47.324;8.788;2022-09-09T19:56:23;16.20;50.30
50816;DHT22;39717;47.324;8.788;2022-09-09T19:58:50;16.20;49.70
50816;DHT22;39717;47.324;8.788;2022-09-09T20:01:18;16.10;50.70
50816;DHT22;39717;47.324;8.788;2022-09-09T20:03:46;16.10;51.80
50816;DHT22;39717;47.324;8.788;2022-09-09T20:06:15;16.00;52.30
50816;DHT22;39717;47.324;8.788;2022-09-09T20:08:44;15.90;53.90
50816;DHT22;39717;47.324;8.788;2022-09-09T20:11:12;15.90;55.20
50816;DHT22;39717;47.324;8.788;2022-09-09T20:13:38;15.90;54.20
50816;DHT22;39717;47.324;8.788;2022-09-09T20:16:13;15.90;53.50
50816;DHT22;39717;47.324;8.788;2022-09-09T20:18:42;16.00;53.80
50816;DHT22;39717;47.324;8.788;2022-09-09T20:21:11;15.90;54.30
50816;DHT22;39717;47.324;8.788;2022-09-09T20:23:37;15.90;54.80
50816;DHT22;39717;47.324;8.788;2022-09-09T20:26:06;15.80;55.10
50816;DHT22;39717;47.324;8.788;2022-09-09T20:28:35;15.80;55.40
50816;DHT22;39717;47.324;8.788;2022-09-09T20:31:14;15.90;55.40
50816;DHT22;39717;47.324;8.788;2022-09-09T20:33:42;16.00;54.70
50816;DHT22;39717;47.324;8.788;2022-09-09T20:38:53;16.00;53.30
50816;DHT22;39717;47.324;8.788;2022-09-09T20:41:21;16.00;53.60
50816;DHT22;39717;47.324;8.788;2022-09-09T20:43:53;15.90;53.30
50816;DHT22;39717;47.324;8.788;2022-09-09T20:46:22;16.00;53.80
50816;DHT22;39717;47.324;8.788;2022-09-09T20:48:49;15.90;54.20
50816;DHT22;39717;47.324;8.788;2022-09-09T20:51:27;15.80;60.20
50816;DHT22;39717;47.324;8.788;2022-09-09T20:54:17;15.80;56.90
50816;DHT22;39717;47.324;8.788;2022-09-09T20:56:42;15.70;58.30
50816;DHT22;39717;47.324;8.788;2022-09-09T20:59:15;15.80;55.40
50816;DHT22;39717;47.324;8.788;2022-09-09T21:01:42;16.00;53.30
50816;DHT22;39717;47.324;8.788;2022-09-09T21:04:09;16.00;53.00
50816;DHT22;39717;47.324;8.788;2022-09-09T21:06:35;16.00;52.40
50816;DHT22;39717;47.324;8.788;2022-09-09T21:09:02;16.10;53.10
50816;DHT22;39717;47.324;8.788;2022-09-09T21:11:28;16.00;54.00
50816;DHT22;39717;47.324;8.788;2022-09-09T21:13:55;16.10;50.40
50816;DHT22;39717;47.324;8.788;2022-09-09T21:16:21;16.10;49.90
50816;DHT22;39717;47.324;8.788;2022-09-09T21:18:48;16.10;51.50
50816;DHT22;39717;47.324;8.788;2022-09-09T21:21:15;16.20;49.40
50816;DHT22;39717;47.324;8.788;2022-09-09T21:23:41;16.10;49.60
50816;DHT22;39717;47.324;8.788;2022-09-09T21:26:08;16.10;49.30
50816;DHT22;39717;47.324;8.788;2022-09-09T21:28:34;16.00;50.90
50816;DHT22;39717;47.324;8.788;2022-09-09T21:31:01;16.10;50.60
50816;DHT22;39717;47.324;8.788;2022-09-09T21:33:27;16.10;50.50
50816;DHT22;39717;47.324;8.788;2022-09-09T21:36:05;16.10;50.50
50816;DHT22;39717;47.324;8.788;2022-09-09T21:38:32;16.00;51.90
50816;DHT22;39717;47.324;8.788;2022-09-09T21:41:03;15.90;52.40
50816;DHT22;39717;47.324;8.788;2022-09-09T21:43:30;15.90;52.70
50816;DHT22;39717;47.324;8.788;2022-09-09T21:45:56;15.90;53.50
50816;DHT22;39717;47.324;8.788;2022-09-09T21:48:24;15.90;54.20
50816;DHT22;39717;47.324;8.788;2022-09-09T21:50:51;15.80;55.50
50816;DHT22;39717;47.324;8.788;2022-09-09T21:53:17;15.80;55.40
50816;DHT22;39717;47.324;8.788;2022-09-09T21:55:47;15.80;55.80
50816;DHT22;39717;47.324;8.788;2022-09-09T21:58:16;15.80;56.00
50816;DHT22;39717;47.324;8.788;2022-09-09T22:00:45;15.80;55.80
50816;DHT22;39717;47.324;8.788;2022-09-09T22:03:15;15.90;56.50
50816;DHT22;39717;47.324;8.788;2022-09-09T22:05:43;15.90;57.40
50816;DHT22;39717;47.324;8.788;2022-09-09T22:08:11;15.90;57.40
50816;DHT22;39717;47.324;8.788;2022-09-09T22:10:40;15.80;57.60
50816;DHT22;39717;47.324;8.788;2022-09-09T22:13:10;15.80;58.40
50816;DHT22;39717;47.324;8.788;2022-09-09T22:15:40;15.80;57.10
50816;DHT22;39717;47.324;8.788;2022-09-09T22:18:06;15.80;58.40
50816;DHT22;39717;47.324;8.788;2022-09-09T22:20:38;15.70;59.30
50816;DHT22;39717;47.324;8.788;2022-09-09T22:23:04;15.70;57.40
50816;DHT22;39717;47.324;8.788;2022-09-09T22:25:35;15.80;57.10
50816;DHT22;39717;47.324;8.788;2022-09-09T22:28:04;15.70;57.60
50816;DHT22;39717;47.324;8.788;2022-09-09T22:30:31;15.70;57.80
50816;DHT22;39717;47.324;8.788;2022-09-09T22:32:57;15.60;58.40
50816;DHT22;39717;47.324;8.788;2022-09-09T22:35:23;15.60;58.90
50816;DHT22;39717;47.324;8.788;2022-09-09T22:37:49;15.60;58.80
50816;DHT22;39717;47.324;8.788;2022-09-09T22:40:14;15.60;57.50
50816;DHT22;39717;47.324;8.788;2022-09-09T22:42:41;15.60;57.90
50816;DHT22;39717;47.324;8.788;2022-09-09T22:45:09;15.60;53.40
50816;DHT22;39717;47.324;8.788;2022-09-09T22:47:36;15.60;53.10
50816;DHT22;39717;47.324;8.788;2022-09-09T22:50:02;15.60;50.10
50816;DHT22;39717;47.324;8.788;2022-09-09T22:52:29;15.60;51.80
50816;DHT22;39717;47.324;8.788;2022-09-09T22:54:57;15.60;50.40
50816;DHT22;39717;47.324;8.788;2022-09-09T22:57:26;15.50;51.30
50816;DHT22;39717;47.324;8.788;2022-09-09T23:02:18;15.50;49.90
50816;DHT22;39717;47.324;8.788;2022-09-09T23:04:47;15.50;50.40
50816;DHT22;39717;47.324;8.788;2022-09-09T23:07:12;15.50;52.00
50816;DHT22;39717;47.324;8.788;2022-09-09T23:09:38;15.50;51.50
50816;DHT22;39717;47.324;8.788;2022-09-09T23:12:04;15.40;52.60
50816;DHT22;39717;47.324;8.788;2022-09-09T23:14:33;15.40;54.60
50816;DHT22;39717;47.324;8.788;2022-09-09T23:16:59;15.40;57.60
50816;DHT22;39717;47.324;8.788;2022-09-09T23:19:27;15.40;56.90
50816;DHT22;39717;47.324;8.788;2022-09-09T23:21:53;15.30;54.50
50816;DHT22;39717;47.324;8.788;2022-09-09T23:24:20;15.30;54.50
50816;DHT22;39717;47.324;8.788;2022-09-09T23:26:46;15.30;54.60
50816;DHT22;39717;47.324;8.788;2022-09-09T23:29:13;15.30;55.10
50816;DHT22;39717;47.324;8.788;2022-09-09T23:31:40;15.30;57.40
50816;DHT22;39717;47.324;8.788;2022-09-09T23:34:06;15.20;58.10
50816;DHT22;39717;47.324;8.788;2022-09-09T23:36:33;15.20;62.00
50816;DHT22;39717;47.324;8.788;2022-09-09T23:39:02;15.20;62.90
50816;DHT22;39717;47.324;8.788;2022-09-09T23:41:29;15.10;61.20
50816;DHT22;39717;47.324;8.788;2022-09-09T23:43:56;15.10;63.00
50816;DHT22;39717;47.324;8.788;2022-09-09T23:46:24;15.20;65.10
50816;DHT22;39717;47.324;8.788;2022-09-09T23:48:54;15.10;66.30
50816;DHT22;39717;47.324;8.788;2022-09-09T23:51:23;15.10;68.10
50816;DHT22;39717;47.324;8.788;2022-09-09T23:53:51;15.10;78.50
50816;DHT22;39717;47.324;8.788;2022-09-09T23:56:23;15.10;77.80
50816;DHT22;39717;47.324;8.788;2022-09-09T23:58:50;15.00;80.90
